Time;durP1;ratioP1;P1;durP2;ratioP2;P2;SDS_P1;SDS_P2;PMS_P1;PMS_P2;Temp;Humidity;BMP_temperature;BMP_pressure;BME280_temperature;BME280_humidity;BME280_pressure;Samples;Min_cycle;Max_cycle;Signal;HPM_P1;HPM_P2
2022/05/05 00:01:34;;;;;;;6.97;4.20;;;11.10;99.90;;;;;;5039350;28;20419;-83
2022/05/05 00:04:00;;;;;;;8.37;4.90;;;11.10;99.90;;;;;;5039875;28;20446;-82
2022/05/05 00:06:29;;;;;;;8.00;4.53;;;11.20;99.90;;;;;;5037489;28;20481;-83
2022/05/05 00:08:55;;;;;;;6.30;3.43;;;11.20;99.90;;;;;;5038342;28;20468;-83
2022/05/05 00:14:28;;;;;;;9.80;5.20;;;11.40;99.90;;;;;;5018055;28;20496;-83
2022/05/05 00:17:06;;;;;;;9.70;4.70;;;11.50;99.90;;;;;;5040366;28;20430;-83
2022/05/05 00:19:34;;;;;;;9.33;5.70;;;11.60;99.90;;;;;;5041784;28;20454;-83
2022/05/05 00:22:00;;;;;;;11.77;5.30;;;11.60;99.90;;;;;;5041629;28;20844;-83
2022/05/05 00:24:26;;;;;;;8.10;5.27;;;11.70;99.90;;;;;;5039733;28;20481;-83
2022/05/05 00:26:52;;;;;;;7.87;4.80;;;11.80;99.90;;;;;;5041088;28;20469;-82
2022/05/05 00:29:19;;;;;;;7.63;5.50;;;11.80;99.90;;;;;;5039979;28;20554;-83
2022/05/05 00:31:45;;;;;;;8.43;4.87;;;11.80;99.90;;;;;;5039443;28;20436;-83
2022/05/05 00:34:10;;;;;;;11.17;4.30;;;11.80;99.90;;;;;;5036045;28;20469;-83
2022/05/05 00:36:36;;;;;;;10.10;6.20;;;11.80;99.90;;;;;;5040902;28;20825;-83
2022/05/05 00:39:03;;;;;;;9.83;5.57;;;11.90;99.90;;;;;;5039333;28;20599;-82
2022/05/05 00:41:37;;;;;;;10.03;4.70;;;12.00;99.90;;;;;;5040430;28;20454;-83
2022/05/05 00:44:04;;;;;;;8.13;5.27;;;12.10;99.90;;;;;;5038485;28;20480;-83
2022/05/05 00:46:30;;;;;;;8.50;5.47;;;12.10;99.90;;;;;;5040208;28;20426;-84
2022/05/05 00:48:56;;;;;;;9.23;5.27;;;12.10;99.90;;;;;;5039420;28;20597;-82
2022/05/05 00:51:22;;;;;;;8.03;4.63;;;12.10;99.90;;;;;;5040134;28;20476;-83
2022/05/05 00:53:48;;;;;;;9.87;5.00;;;12.20;99.90;;;;;;5039567;28;20605;-83
2022/05/05 00:56:15;;;;;;;7.97;5.03;;;12.20;99.90;;;;;;5039541;28;20534;-82
2022/05/05 00:58:44;;;;;;;10.80;4.90;;;12.20;99.90;;;;;;5039848;28;20176;-83
2022/05/05 01:01:11;;;;;;;8.70;5.40;;;12.20;99.90;;;;;;5037242;28;20465;-82
2022/05/05 01:03:37;;;;;;;9.60;4.73;;;12.20;99.90;;;;;;5037359;28;21050;-82
2022/05/05 01:06:05;;;;;;;8.73;4.73;;;12.20;99.90;;;;;;5037447;28;21192;-82
2022/05/05 01:08:33;;;;;;;7.53;4.70;;;12.10;99.90;;;;;;5037656;28;20524;-82
2022/05/05 01:10:59;;;;;;;8.27;4.93;;;12.30;99.90;;;;;;5037031;28;20454;-83
2022/05/05 01:13:27;;;;;;;8.70;4.60;;;12.30;99.90;;;;;;5037446;28;21161;-83
2022/05/05 01:15:56;;;;;;;12.50;5.83;;;12.30;99.90;;;;;;5037092;28;20176;-82
2022/05/05 01:18:22;;;;;;;7.53;4.47;;;12.40;99.90;;;;;;5038669;28;20450;-83
2022/05/05 01:20:50;;;;;;;7.10;4.40;;;12.40;99.90;;;;;;5036917;28;20774;-83
2022/05/05 01:23:17;;;;;;;10.13;4.60;;;12.50;99.90;;;;;;5035771;28;20501;-82
2022/05/05 01:28:31;;;;;;;8.53;4.63;;;12.60;99.90;;;;;;5037081;28;20984;-82
2022/05/05 01:30:57;;;;;;;7.67;4.10;;;12.70;99.90;;;;;;5036432;28;20454;-83
2022/05/05 01:33:25;;;;;;;8.07;5.10;;;12.80;99.90;;;;;;5036982;28;20438;-83
2022/05/05 01:35:53;;;;;;;12.97;5.67;;;12.80;99.90;;;;;;5034768;28;20423;-83
2022/05/05 01:38:26;;;;;;;9.20;5.23;;;12.90;99.90;;;;;;5036777;28;20419;-82
2022/05/05 01:40:52;;;;;;;8.37;5.07;;;12.90;99.90;;;;;;5034028;28;20802;-82
2022/05/05 01:43:19;;;;;;;10.43;5.27;;;12.90;99.90;;;;;;5036035;28;20435;-82
2022/05/05 01:45:46;;;;;;;9.43;4.93;;;12.80;99.90;;;;;;5034038;28;20508;-82
2022/05/05 01:48:12;;;;;;;9.83;6.00;;;12.80;99.90;;;;;;5034527;28;20876;-82
2022/05/05 01:50:38;;;;;;;7.73;4.67;;;12.70;99.90;;;;;;5035686;28;20419;-82
2022/05/05 01:53:04;;;;;;;10.33;5.70;;;12.70;99.90;;;;;;5034073;28;20415;-81
2022/05/05 01:55:31;;;;;;;10.27;5.90;;;12.70;99.90;;;;;;5033600;28;20568;-83
2022/05/05 01:57:57;;;;;;;8.83;4.53;;;12.60;99.90;;;;;;5031882;28;20419;-82
2022/05/05 02:00:23;;;;;;;10.00;5.70;;;12.60;99.90;;;;;;5032958;28;20951;-82
2022/05/05 02:02:49;;;;;;;10.73;5.20;;;12.60;99.90;;;;;;5033054;28;20420;-82
2022/05/05 02:05:16;;;;;;;8.50;5.00;;;12.70;99.90;;;;;;5032479;28;20421;-83
2022/05/05 02:07:43;;;;;;;8.60;5.17;;;12.80;99.90;;;;;;5031494;28;20423;-82
2022/05/05 02:10:11;;;;;;;7.33;4.97;;;12.80;99.90;;;;;;5031260;28;20997;-82
2022/05/05 02:12:38;;;;;;;8.43;5.10;;;12.80;99.90;;;;;;5031809;28;20541;-81
2022/05/05 02:15:06;;;;;;;14.13;6.37;;;12.80;99.90;;;;;;5032581;28;20687;-82
2022/05/05 02:17:32;;;;;;;8.40;5.40;;;12.80;99.90;;;;;;5032688;28;20465;-83
2022/05/05 02:19:59;;;;;;;9.30;5.23;;;12.80;99.90;;;;;;5032388;28;20450;-83
2022/05/05 02:22:25;;;;;;;8.10;5.40;;;12.80;99.90;;;;;;5030872;28;20493;-82
2022/05/05 02:24:50;;;;;;;9.20;5.40;;;12.80;99.90;;;;;;4992877;28;1118118;-82
2022/05/05 02:27:16;;;;;;;7.63;5.30;;;13.00;99.90;;;;;;5031842;28;20951;-83
2022/05/05 02:29:42;;;;;;;7.73;5.23;;;13.00;99.90;;;;;;5033458;28;20671;-82
2022/05/05 02:32:08;;;;;;;10.57;5.03;;;13.00;99.90;;;;;;5033101;28;20912;-82
2022/05/05 02:34:34;;;;;;;11.83;5.70;;;13.00;99.90;;;;;;5031944;28;20533;-82
2022/05/05 02:39:43;;;;;;;11.47;5.50;;;13.00;99.90;;;;;;5033516;28;20199;-82
2022/05/05 02:42:09;;;;;;;13.10;6.10;;;13.00;99.90;;;;;;5032381;28;20864;-82
2022/05/05 02:44:34;;;;;;;9.90;5.70;;;12.90;99.90;;;;;;5031795;28;20668;-83
2022/05/05 02:47:00;;;;;;;8.97;5.27;;;12.90;99.90;;;;;;5031191;28;20192;-82
2022/05/05 02:49:27;;;;;;;8.50;5.50;;;12.90;99.90;;;;;;5031371;28;20262;-82
2022/05/05 02:51:53;;;;;;;13.73;5.60;;;12.90;99.90;;;;;;5032496;28;20204;-82
2022/05/05 02:57:03;;;;;;;11.60;6.13;;;12.90;99.90;;;;;;5032444;28;20551;-82
2022/05/05 02:59:29;;;;;;;10.37;5.90;;;12.90;99.90;;;;;;5032716;28;20498;-82
2022/05/05 03:01:54;;;;;;;8.90;5.33;;;12.90;99.90;;;;;;5032624;28;20886;-81
2022/05/05 03:04:20;;;;;;;8.33;5.67;;;12.90;99.90;;;;;;5031144;28;20200;-82
2022/05/05 03:06:45;;;;;;;8.17;6.10;;;12.90;99.90;;;;;;5032314;28;20183;-82
2022/05/05 03:09:11;;;;;;;14.27;5.93;;;12.90;99.90;;;;;;5031400;28;20266;-82
2022/05/05 03:11:36;;;;;;;9.23;6.17;;;12.90;99.90;;;;;;5031063;28;20196;-82
2022/05/05 03:14:02;;;;;;;8.93;5.90;;;12.90;99.90;;;;;;5032341;28;20196;-82
2022/05/05 03:16:28;;;;;;;13.07;6.10;;;12.90;99.90;;;;;;5031111;28;20704;-82
2022/05/05 03:18:53;;;;;;;14.27;6.60;;;12.80;99.90;;;;;;5032209;28;20185;-83
2022/05/05 03:21:19;;;;;;;11.77;6.60;;;12.80;99.90;;;;;;5032458;28;20177;-82
2022/05/05 03:23:45;;;;;;;8.53;5.43;;;12.70;99.90;;;;;;5032175;28;20295;-82
2022/05/05 03:26:10;;;;;;;9.90;6.27;;;12.70;99.90;;;;;;5030869;28;20191;-82
2022/05/05 03:28:36;;;;;;;10.83;5.83;;;12.70;99.90;;;;;;5084619;22;20322;-79
2022/05/05 03:31:02;;;;;;;9.97;6.03;;;12.60;99.90;;;;;;5057824;28;20186;-79
2022/05/05 03:33:28;;;;;;;11.70;6.83;;;12.60;99.90;;;;;;5057405;28;20187;-79
2022/05/05 03:35:54;;;;;;;11.50;6.70;;;12.60;99.90;;;;;;5057216;28;20402;-79
2022/05/05 03:38:19;;;;;;;10.13;6.40;;;12.60;99.90;;;;;;5056853;28;20187;-79
2022/05/05 03:40:45;;;;;;;9.23;6.23;;;12.60;99.90;;;;;;5056828;28;20221;-79
2022/05/05 03:43:11;;;;;;;11.40;6.60;;;12.50;99.90;;;;;;5057046;28;20274;-79
2022/05/05 03:45:37;;;;;;;15.93;6.30;;;12.50;99.90;;;;;;5058206;28;20199;-79
2022/05/05 03:48:03;;;;;;;11.17;6.50;;;12.60;99.90;;;;;;5061748;28;20472;-79
2022/05/05 03:50:29;;;;;;;11.00;6.97;;;12.50;99.90;;;;;;5060575;28;20424;-79
2022/05/05 03:52:55;;;;;;;16.67;7.43;;;12.60;99.90;;;;;;5061475;28;21023;-79
2022/05/05 03:55:21;;;;;;;9.83;6.63;;;12.60;99.90;;;;;;5059920;28;20661;-79
2022/05/05 03:57:48;;;;;;;14.30;7.60;;;12.50;99.90;;;;;;5061184;28;20191;-79
2022/05/05 04:00:15;;;;;;;15.20;7.87;;;12.50;99.90;;;;;;5059900;28;20183;-79
2022/05/05 04:02:40;;;;;;;12.50;7.70;;;12.50;99.90;;;;;;5060401;28;20444;-79
2022/05/05 04:05:07;;;;;;;14.07;8.50;;;12.50;99.90;;;;;;5060485;28;20410;-79
2022/05/05 04:07:32;;;;;;;11.23;6.70;;;12.40;99.90;;;;;;5061096;28;20275;-79
2022/05/05 04:09:58;;;;;;;15.57;8.27;;;12.30;99.90;;;;;;5060255;28;20454;-79
2022/05/05 04:12:24;;;;;;;12.30;8.10;;;12.30;99.90;;;;;;5060061;28;20678;-79
2022/05/05 04:14:51;;;;;;;15.47;8.10;;;12.20;99.90;;;;;;5060602;28;20179;-79
2022/05/05 04:17:17;;;;;;;13.60;8.67;;;12.20;99.90;;;;;;5059817;28;20442;-79
2022/05/05 04:19:43;;;;;;;13.50;8.87;;;12.20;99.90;;;;;;5060351;28;20951;-79
2022/05/05 04:22:09;;;;;;;15.60;7.90;;;12.10;99.90;;;;;;5060402;28;20565;-79
2022/05/05 04:24:34;;;;;;;18.37;8.97;;;12.10;99.90;;;;;;5060937;28;20444;-79
2022/05/05 04:27:02;;;;;;;16.00;8.57;;;12.10;99.90;;;;;;5060622;28;20290;-79
2022/05/05 04:29:27;;;;;;;12.80;8.33;;;12.10;99.90;;;;;;5060672;28;20204;-79
2022/05/05 04:31:53;;;;;;;13.57;8.40;;;12.10;99.90;;;;;;5060929;28;20437;-79
2022/05/05 04:34:20;;;;;;;11.47;7.70;;;12.20;99.90;;;;;;5060093;28;20242;-79
2022/05/05 04:36:46;;;;;;;12.10;7.93;;;12.20;99.90;;;;;;5060806;28;20809;-79
2022/05/05 04:39:12;;;;;;;14.53;9.47;;;12.10;99.90;;;;;;5058706;28;20513;-79
2022/05/05 04:41:37;;;;;;;18.50;8.50;;;12.20;99.90;;;;;;5055745;28;20461;-79
2022/05/05 04:44:03;;;;;;;11.23;8.80;;;12.30;99.90;;;;;;5056537;28;20203;-79
2022/05/05 04:46:29;;;;;;;16.23;8.80;;;12.30;99.90;;;;;;5055805;28;20666;-79
2022/05/05 04:48:56;;;;;;;14.90;9.43;;;12.50;99.90;;;;;;5055397;28;20465;-79
2022/05/05 04:51:21;;;;;;;15.30;8.97;;;12.50;99.90;;;;;;5055980;28;20191;-79
2022/05/05 04:53:47;;;;;;;12.80;8.90;;;12.60;99.90;;;;;;5055714;28;20421;-79
2022/05/05 04:56:14;;;;;;;18.90;9.80;;;12.50;99.90;;;;;;5055120;28;20191;-79
2022/05/05 04:58:41;;;;;;;13.80;8.73;;;12.50;99.90;;;;;;5054722;28;20270;-79
2022/05/05 05:01:06;;;;;;;14.80;9.43;;;12.50;99.90;;;;;;5055118;28;20422;-79
2022/05/05 05:03:32;;;;;;;17.17;9.50;;;12.40;99.90;;;;;;5055409;28;20426;-79
2022/05/05 05:05:58;;;;;;;15.17;8.47;;;12.30;99.90;;;;;;5054768;28;20186;-79
2022/05/05 05:08:24;;;;;;;15.57;9.73;;;12.40;99.90;;;;;;5054767;28;20306;-79
2022/05/05 05:10:50;;;;;;;15.90;9.57;;;12.50;99.90;;;;;;5054659;28;20450;-79
2022/05/05 05:13:15;;;;;;;17.10;10.47;;;12.50;99.90;;;;;;5054405;28;20213;-79
2022/05/05 05:15:41;;;;;;;16.57;10.10;;;12.60;99.90;;;;;;5054089;28;20216;-79
2022/05/05 05:18:07;;;;;;;17.80;9.90;;;12.60;99.90;;;;;;5054047;28;20244;-79
2022/05/05 05:20:33;;;;;;;12.10;8.30;;;12.70;99.90;;;;;;5054029;28;20179;-79
2022/05/05 05:22:58;;;;;;;19.50;10.67;;;12.80;99.90;;;;;;5054192;28;20187;-79
2022/05/05 05:25:25;;;;;;;17.40;9.83;;;12.80;99.90;;;;;;5053596;28;20176;-79
2022/05/05 05:27:50;;;;;;;15.70;9.63;;;12.90;99.90;;;;;;5053515;28;20310;-79
2022/05/05 05:30:16;;;;;;;13.63;8.57;;;12.90;99.90;;;;;;5053687;28;20501;-79
2022/05/05 05:32:42;;;;;;;15.53;9.57;;;12.90;99.90;;;;;;5053418;28;20183;-78
2022/05/05 05:35:08;;;;;;;14.77;9.30;;;13.00;99.90;;;;;;5053748;28;20179;-79
2022/05/05 05:37:34;;;;;;;15.60;9.17;;;13.20;99.90;;;;;;5053473;28;20274;-79
2022/05/05 05:39:59;;;;;;;14.07;9.60;;;13.10;99.90;;;;;;5053594;28;20423;-79
2022/05/05 05:42:25;;;;;;;18.20;10.50;;;13.20;99.90;;;;;;5053419;28;20673;-78
2022/05/05 05:44:51;;;;;;;17.60;10.00;;;13.30;99.90;;;;;;5052776;28;20550;-79
2022/05/05 05:47:16;;;;;;;13.97;9.80;;;13.30;99.90;;;;;;5053023;28;20318;-78
2022/05/05 05:49:42;;;;;;;16.00;9.50;;;13.50;99.90;;;;;;5053430;28;20215;-78
2022/05/05 05:52:08;;;;;;;15.47;9.83;;;13.60;99.90;;;;;;5052980;28;20602;-79
2022/05/05 05:54:34;;;;;;;15.97;9.57;;;13.60;99.90;;;;;;5052721;28;20176;-79
2022/05/05 05:57:00;;;;;;;17.03;9.33;;;13.70;99.90;;;;;;5052817;28;20578;-78
2022/05/05 05:59:26;;;;;;;16.10;8.97;;;13.70;99.90;;;;;;5052406;28;20188;-79
2022/05/05 06:04:35;;;;;;;17.87;9.07;;;14.00;99.90;;;;;;5054222;28;20214;-79
2022/05/05 06:07:01;;;;;;;15.87;10.83;;;14.10;99.90;;;;;;5052293;28;20957;-79
2022/05/05 06:09:27;;;;;;;15.53;10.00;;;14.20;99.90;;;;;;5052006;28;20245;-79
2022/05/05 06:11:53;;;;;;;10.97;8.20;;;14.20;99.90;;;;;;5052297;28;20418;-79
2022/05/05 06:14:19;;;;;;;18.67;9.53;;;14.30;99.90;;;;;;5052660;28;20187;-79
2022/05/05 06:16:44;;;;;;;15.70;9.10;;;14.20;99.90;;;;;;5051881;28;20203;-79
2022/05/05 06:19:10;;;;;;;17.57;9.90;;;14.40;99.90;;;;;;5052634;28;20425;-79
2022/05/05 06:21:36;;;;;;;18.20;9.63;;;14.30;99.90;;;;;;5052186;28;20183;-79
2022/05/05 06:24:05;;;;;;;13.60;9.00;;;14.40;99.90;;;;;;5052366;28;20670;-79
2022/05/05 06:26:32;;;;;;;15.37;10.43;;;14.40;99.90;;;;;;5054918;28;20211;-79
2022/05/05 06:28:58;;;;;;;12.87;7.83;;;14.50;99.90;;;;;;5056164;28;20470;-79
2022/05/05 06:31:24;;;;;;;13.77;8.80;;;14.70;99.90;;;;;;5054642;28;20501;-78
2022/05/05 06:33:50;;;;;;;12.20;8.10;;;14.80;99.90;;;;;;5051170;28;20505;-76
2022/05/05 06:36:19;;;;;;;13.83;8.50;;;14.90;99.90;;;;;;5051060;28;20204;-77
2022/05/05 06:38:44;;;;;;;14.53;8.73;;;14.90;99.90;;;;;;5051125;28;20557;-77
2022/05/05 06:41:11;;;;;;;15.63;9.00;;;15.10;99.90;;;;;;5051286;28;20514;-77
2022/05/05 06:43:37;;;;;;;13.80;8.67;;;15.20;99.90;;;;;;5051429;28;20709;-77
2022/05/05 06:46:03;;;;;;;12.20;8.23;;;15.30;99.90;;;;;;5051405;28;20446;-77
2022/05/05 06:48:30;;;;;;;13.50;7.33;;;15.50;99.90;;;;;;5051208;28;20235;-77
2022/05/05 06:50:55;;;;;;;10.80;7.30;;;15.60;99.90;;;;;;5051042;28;20414;-76
2022/05/05 06:53:21;;;;;;;12.80;7.50;;;15.70;99.90;;;;;;5050637;28;20418;-76
2022/05/05 06:55:49;;;;;;;11.57;8.27;;;15.90;99.90;;;;;;5050506;28;20172;-76
2022/05/05 06:58:15;;;;;;;11.13;6.93;;;16.10;99.90;;;;;;5050571;28;20266;-76
2022/05/05 07:03:25;;;;;;;12.07;7.50;;;16.30;99.90;;;;;;5052136;28;20681;-76
2022/05/05 07:05:52;;;;;;;11.17;7.33;;;16.40;99.90;;;;;;5050548;28;20418;-76
2022/05/05 07:08:21;;;;;;;10.83;8.13;;;16.50;99.90;;;;;;5050403;28;20204;-75
2022/05/05 07:10:53;;;;;;;13.73;7.93;;;16.60;99.90;;;;;;5050442;28;20422;-75
2022/05/05 07:13:23;;;;;;;12.97;8.50;;;16.70;99.90;;;;;;5050775;28;20418;-76
2022/05/05 07:15:50;;;;;;;12.10;8.00;;;16.70;99.90;;;;;;5050262;28;20792;-76
2022/05/05 07:18:16;;;;;;;14.00;8.20;;;16.70;99.90;;;;;;5050851;28;20510;-76
2022/05/05 07:20:43;;;;;;;13.63;7.43;;;16.90;99.90;;;;;;5050180;28;20982;-76
2022/05/05 07:23:12;;;;;;;10.67;7.27;;;17.10;99.90;;;;;;5050693;28;20426;-76
2022/05/05 07:25:40;;;;;;;15.10;8.80;;;17.00;99.90;;;;;;5050261;28;20425;-76
2022/05/05 07:28:06;;;;;;;15.47;8.23;;;17.10;99.90;;;;;;5050261;28;20477;-76
2022/05/05 07:30:33;;;;;;;10.97;7.07;;;17.20;99.90;;;;;;5050296;28;20468;-76
2022/05/05 07:32:59;;;;;;;13.10;7.70;;;17.40;99.90;;;;;;5051063;28;20422;-78
2022/05/05 07:35:25;;;;;;;11.90;8.10;;;17.40;99.90;;;;;;5051507;28;20923;-77
2022/05/05 07:37:51;;;;;;;13.23;7.83;;;17.40;99.90;;;;;;5050248;28;20442;-77
2022/05/05 07:40:17;;;;;;;10.00;6.70;;;17.40;99.90;;;;;;5050755;28;20176;-77
2022/05/05 07:42:42;;;;;;;9.87;7.47;;;17.50;99.90;;;;;;5050461;28;20551;-77
2022/05/05 07:45:09;;;;;;;14.27;7.30;;;17.70;99.90;;;;;;5053715;28;20410;-76
2022/05/05 07:47:35;;;;;;;13.00;7.33;;;17.60;99.90;;;;;;5050325;28;20286;-78
2022/05/05 07:50:05;;;;;;;11.80;7.00;;;17.60;99.90;;;;;;5049713;28;20548;-77
2022/05/05 07:52:30;;;;;;;13.33;7.80;;;17.50;99.90;;;;;;5050065;28;20176;-76
2022/05/05 07:54:57;;;;;;;12.23;7.33;;;17.60;99.90;;;;;;5049761;28;20517;-77
2022/05/05 07:57:23;;;;;;;12.00;8.73;;;17.70;99.90;;;;;;5050018;28;20286;-75
2022/05/05 07:59:49;;;;;;;11.20;6.33;;;18.00;99.90;;;;;;5049896;28;20509;-76
2022/05/05 08:02:15;;;;;;;14.53;7.37;;;18.40;99.90;;;;;;5049739;28;20594;-75
2022/05/05 08:04:42;;;;;;;10.50;6.80;;;18.80;99.90;;;;;;5049733;28;20945;-76
2022/05/05 08:07:12;;;;;;;11.10;6.43;;;19.40;99.90;;;;;;5050015;28;20448;-77
2022/05/05 08:09:38;;;;;;;9.73;6.50;;;20.10;99.90;;;;;;5049818;28;20489;-77
2022/05/05 08:12:05;;;;;;;11.87;7.27;;;20.70;99.90;;;;;;5048218;28;20536;-77
2022/05/05 08:14:31;;;;;;;9.70;6.80;;;21.50;99.90;;;;;;5049750;28;21000;-77
2022/05/05 08:16:57;;;;;;;14.23;7.60;;;22.10;99.90;;;;;;5049188;28;20442;-76
2022/05/05 08:19:23;;;;;;;11.87;6.67;;;22.80;99.90;;;;;;5049761;28;20833;-77
2022/05/05 08:21:50;;;;;;;10.90;6.50;;;23.20;99.30;;;;;;5065011;28;20424;-77
2022/05/05 08:29:45;;;;;;;9.03;6.33;;;25.10;90.20;;;;;;5071324;28;20453;-79
2022/05/05 08:32:11;;;;;;;10.20;7.00;;;25.40;83.90;;;;;;5071508;28;20421;-78
2022/05/05 08:34:37;;;;;;;11.00;7.33;;;25.50;76.80;;;;;;5073638;28;20175;-78
2022/05/05 08:37:03;;;;;;;12.87;6.80;;;26.60;72.20;;;;;;5038589;28;20988;-78
2022/05/05 08:39:29;;;;;;;7.57;5.47;;;26.80;73.20;;;;;;5035773;28;20663;-79
2022/05/05 08:41:55;;;;;;;8.87;6.40;;;;;;;;;;5035022;28;20512;-78
2022/05/05 08:44:21;;;;;;;8.27;5.67;;;29.30;56.90;;;;;;5034593;28;20181;-79
2022/05/05 08:46:53;;;;;;;9.23;6.17;;;29.30;57.20;;;;;;5034077;28;20449;-78
2022/05/05 08:49:23;;;;;;;11.50;6.30;;;29.30;54.10;;;;;;5033638;28;20699;-77
2022/05/05 08:51:54;;;;;;;13.87;6.67;;;29.60;51.20;;;;;;5033878;28;20426;-77
2022/05/05 08:54:23;;;;;;;9.10;6.03;;;30.00;49.30;;;;;;5033752;28;20415;-78
2022/05/05 08:56:50;;;;;;;9.10;5.80;;;30.70;48.00;;;;;;5034378;28;20793;-78
2022/05/05 08:59:20;;;;;;;8.73;6.83;;;31.20;46.90;;;;;;5035122;28;20861;-77
2022/05/05 09:01:46;;;;;;;11.63;6.13;;;32.20;44.30;;;;;;5035165;28;20938;-78
2022/05/05 09:04:12;;;;;;;9.93;6.33;;;32.40;43.60;;;;;;5035021;28;20438;-78
2022/05/05 09:06:46;;;;;;;9.23;7.80;;;33.30;54.00;;;;;;5034758;28;20204;-78
2022/05/05 09:09:26;;;;;;;12.27;6.50;;;33.70;46.80;;;;;;5034395;28;20474;-78
2022/05/05 09:12:11;;;;;;;10.37;7.37;;;33.70;39.50;;;;;;5034821;28;20473;-78
2022/05/05 09:14:53;;;;;;;10.87;7.37;;;34.10;40.80;;;;;;5034866;28;20510;-78
2022/05/05 09:17:24;;;;;;;8.33;5.70;;;34.70;38.50;;;;;;5034862;28;20435;-79
2022/05/05 09:19:52;;;;;;;8.00;6.60;;;34.40;37.40;;;;;;5034720;28;20449;-78
2022/05/05 09:22:23;;;;;;;6.63;5.63;;;34.30;37.70;;;;;;5035337;28;20429;-78
2022/05/05 09:24:52;;;;;;;8.77;5.83;;;34.90;38.60;;;;;;5035157;28;20515;-78
2022/05/05 09:30:04;;;;;;;9.73;7.50;;;36.20;33.90;;;;;;5055669;28;20486;-78
2022/05/05 09:32:40;;;;;;;9.30;6.23;;;36.10;33.60;;;;;;5057929;28;20415;-76
2022/05/05 09:35:11;;;;;;;9.40;7.67;;;36.30;33.70;;;;;;5052096;28;20418;-74
2022/05/05 09:37:52;;;;;;;11.17;7.23;;;36.40;32.90;;;;;;5052263;28;20448;-76
2022/05/05 09:40:20;;;;;;;9.43;6.97;;;36.70;33.00;;;;;;5051830;28;20422;-76
2022/05/05 09:42:50;;;;;;;12.80;7.53;;;37.00;33.30;;;;;;5051725;28;20426;-76
2022/05/05 09:45:30;;;;;;;8.23;7.10;;;36.60;32.40;;;;;;5051999;28;20422;-76
2022/05/05 09:48:04;;;;;;;7.70;6.07;;;35.60;32.60;;;;;;5051898;28;20438;-76
2022/05/05 09:50:32;;;;;;;10.00;7.03;;;35.20;33.00;;;;;;5051764;28;20447;-76
2022/05/05 09:58:38;;;;;;;13.27;9.47;;;30.50;36.50;;;;;;5055291;28;20449;-78
2022/05/05 10:01:08;;;;;;;9.73;6.57;;;29.10;37.00;;;;;;5059011;28;20422;-77
2022/05/05 10:04:00;;;;;;;11.20;7.27;;;29.00;39.50;;;;;;5060100;28;20426;-78
2022/05/05 10:06:30;;;;;;;10.07;7.10;;;29.40;37.10;;;;;;5052967;28;20490;-77
2022/05/05 10:08:59;;;;;;;9.57;7.20;;;29.70;37.70;;;;;;5052411;28;20454;-77
2022/05/05 10:11:25;;;;;;;9.50;7.03;;;30.90;38.10;;;;;;5052705;28;20561;-76
2022/05/05 10:13:51;;;;;;;9.33;6.60;;;31.90;35.70;;;;;;5054038;28;20850;-77
2022/05/05 10:16:20;;;;;;;10.03;7.40;;;32.00;36.30;;;;;;5053245;28;20199;-78
2022/05/05 10:18:46;;;;;;;7.50;5.93;;;30.60;35.60;;;;;;5053134;28;20426;-78
2022/05/05 10:21:15;;;;;;;9.43;6.50;;;29.50;36.80;;;;;;5052373;28;20418;-77
2022/05/05 10:23:59;;;;;;;8.50;6.30;;;29.40;38.20;;;;;;5052191;28;20423;-77
2022/05/05 10:26:26;;;;;;;9.10;6.57;;;28.80;38.40;;;;;;5052079;28;20491;-78
2022/05/05 10:28:52;;;;;;;12.30;7.10;;;28.30;40.60;;;;;;5051730;28;20462;-77
2022/05/05 10:31:30;;;;;;;10.40;6.47;;;27.90;41.40;;;;;;5051454;28;20758;-78
2022/05/05 10:34:08;;;;;;;9.23;7.10;;;28.60;42.00;;;;;;5051436;28;20414;-77
2022/05/05 10:36:36;;;;;;;10.47;6.97;;;29.70;40.30;;;;;;5051973;28;20646;-77
2022/05/05 10:39:23;;;;;;;9.47;6.80;;;31.00;38.20;;;;;;5052169;28;20434;-77
2022/05/05 10:41:51;;;;;;;13.30;7.23;;;31.80;37.70;;;;;;5052484;28;20422;-77
2022/05/05 10:44:16;;;;;;;12.33;7.50;;;31.40;35.70;;;;;;5051755;28;20434;-77
2022/05/05 10:47:03;;;;;;;11.40;6.93;;;30.50;37.20;;;;;;5051407;28;20438;-76
2022/05/05 10:49:37;;;;;;;11.50;7.30;;;29.40;37.70;;;;;;5051306;28;20207;-77
2022/05/05 10:52:11;;;;;;;9.10;6.80;;;28.80;37.90;;;;;;5050719;28;20426;-77
2022/05/05 10:54:40;;;;;;;9.33;7.60;;;28.50;39.20;;;;;;5051134;28;20418;-77
2022/05/05 10:57:25;;;;;;;8.23;6.07;;;27.50;38.90;;;;;;5051038;28;20524;-77
2022/05/05 11:00:10;;;;;;;10.07;6.50;;;27.50;41.80;;;;;;5050849;28;20905;-77
2022/05/05 11:02:41;;;;;;;12.50;6.67;;;27.20;40.40;;;;;;5050853;28;20406;-76
2022/05/05 11:05:28;;;;;;;8.70;6.60;;;26.50;42.40;;;;;;5051016;28;20906;-77
2022/05/05 11:08:17;;;;;;;10.13;7.37;;;26.30;43.10;;;;;;5051085;28;20437;-77
2022/05/05 11:10:46;;;;;;;10.23;7.10;;;25.70;43.00;;;;;;5051291;28;20422;-77
2022/05/05 11:13:35;;;;;;;9.90;6.97;;;25.30;43.50;;;;;;5050970;28;20425;-77
2022/05/05 11:22:17;;;;;;;10.77;7.70;;;25.40;43.80;;;;;;5052294;28;20405;-77
2022/05/05 11:24:46;;;;;;;9.90;6.97;;;26.30;45.40;;;;;;5051334;28;20564;-77
2022/05/05 11:27:14;;;;;;;10.30;7.33;;;27.10;45.20;;;;;;5051463;28;20477;-78
2022/05/05 11:29:40;;;;;;;7.83;5.97;;;27.10;45.40;;;;;;5051183;28;20474;-77
2022/05/05 11:32:08;;;;;;;9.13;6.20;;;26.40;45.00;;;;;;5050564;28;20406;-77
2022/05/05 11:34:39;;;;;;;10.07;6.27;;;26.40;46.20;;;;;;5050987;28;20436;-77
2022/05/05 11:37:07;;;;;;;10.50;7.70;;;26.10;44.80;;;;;;5051067;28;20434;-77
2022/05/05 11:39:35;;;;;;;11.20;7.10;;;25.70;44.50;;;;;;5050636;28;20503;-77
2022/05/05 11:42:09;;;;;;;10.03;7.77;;;25.40;45.60;;;;;;5050862;28;20501;-76
2022/05/05 11:44:43;;;;;;;11.83;6.80;;;24.80;44.80;;;;;;5050465;28;20438;-77
2022/05/05 11:47:17;;;;;;;9.43;5.70;;;25.10;45.30;;;;;;5050236;28;20523;-77
2022/05/05 11:49:48;;;;;;;10.60;6.33;;;25.10;44.80;;;;;;5050601;28;20496;-77
2022/05/05 11:52:19;;;;;;;9.27;5.97;;;25.00;44.10;;;;;;5050796;28;20952;-77
2022/05/05 11:54:49;;;;;;;11.80;6.83;;;25.90;45.60;;;;;;5050388;28;20427;-77
2022/05/05 11:57:35;;;;;;;10.60;6.57;;;26.30;45.20;;;;;;5051345;28;20438;-77
2022/05/05 12:02:47;;;;;;;10.60;6.93;;;26.50;43.70;;;;;;5052646;28;20417;-78
2022/05/05 12:05:13;;;;;;;9.67;6.80;;;26.00;44.50;;;;;;5052411;28;20414;-77
2022/05/05 12:07:44;;;;;;;11.60;7.77;;;25.30;44.00;;;;;;5054316;28;20441;-77
2022/05/05 12:10:12;;;;;;;10.13;6.17;;;24.80;44.90;;;;;;5055084;28;20469;-77
2022/05/05 12:12:43;;;;;;;8.80;6.60;;;24.80;47.00;;;;;;5054858;28;20418;-77
2022/05/05 12:15:10;;;;;;;12.10;7.27;;;25.10;47.60;;;;;;5054547;28;20561;-77
2022/05/05 12:17:41;;;;;;;10.37;7.83;;;25.50;46.80;;;;;;5056026;28;20949;-77
2022/05/05 12:20:10;;;;;;;9.17;6.60;;;26.80;45.80;;;;;;5055501;28;20509;-76
2022/05/05 12:22:38;;;;;;;8.93;6.00;;;29.40;42.90;;;;;;5056567;28;20426;-78
2022/05/05 12:25:14;;;;;;;11.33;6.40;;;31.00;41.90;;;;;;5057958;28;20429;-78
2022/05/05 12:27:58;;;;;;;9.87;6.80;;;31.60;39.90;;;;;;5058251;28;20451;-78
2022/05/05 12:30:41;;;;;;;8.10;6.87;;;30.80;40.20;;;;;;5058659;28;20428;-77
2022/05/05 12:33:12;;;;;;;11.93;8.30;;;29.80;40.50;;;;;;5058175;28;20505;-78
2022/05/05 12:35:39;;;;;;;10.60;8.40;;;29.20;40.50;;;;;;5057296;28;20414;-78
2022/05/05 12:38:07;;;;;;;10.40;8.27;;;27.70;39.90;;;;;;5057627;28;20430;-78
2022/05/05 12:40:33;;;;;;;9.20;7.87;;;27.30;41.70;;;;;;5057137;28;20410;-77
2022/05/05 12:43:06;;;;;;;9.63;7.60;;;26.80;42.40;;;;;;5056809;28;20410;-78
2022/05/05 12:45:34;;;;;;;9.10;6.97;;;26.70;42.50;;;;;;5056887;28;20402;-77
2022/05/05 12:48:02;;;;;;;9.13;7.00;;;26.60;44.10;;;;;;5055475;28;20435;-78
2022/05/05 12:50:49;;;;;;;7.83;6.90;;;26.30;43.50;;;;;;5057070;28;20978;-77
2022/05/05 13:01:49;;;;;;;8.20;6.93;;;28.50;42.20;;;;;;5060078;28;20504;-78
2022/05/05 13:04:17;;;;;;;8.60;7.40;;;28.50;43.20;;;;;;5057650;28;20967;-78
2022/05/05 13:06:45;;;;;;;10.70;7.83;;;27.60;43.30;;;;;;5057143;28;20442;-77
2022/05/05 13:09:11;;;;;;;10.70;8.40;;;27.30;44.10;;;;;;5056984;28;20474;-78
2022/05/05 13:11:46;;;;;;;8.27;7.47;;;26.80;44.50;;;;;;5056178;28;20422;-78
2022/05/05 13:14:12;;;;;;;12.27;8.00;;;26.70;44.70;;;;;;5057222;28;20916;-76
2022/05/05 13:16:38;;;;;;;12.07;8.33;;;26.20;44.10;;;;;;5056122;28;20825;-78
2022/05/05 13:19:05;;;;;;;10.00;7.23;;;26.60;44.60;;;;;;5055185;28;20663;-77
2022/05/05 13:21:41;;;;;;;10.47;8.10;;;27.10;45.10;;;;;;5056407;28;20183;-78
2022/05/05 13:24:08;;;;;;;13.20;9.07;;;26.80;42.90;;;;;;5056038;28;20432;-77
2022/05/05 13:26:36;;;;;;;8.80;7.47;;;26.80;42.30;;;;;;5056466;28;20450;-78
2022/05/05 13:29:02;;;;;;;8.90;8.00;;;27.50;42.70;;;;;;5057848;28;20481;-78
2022/05/05 13:31:28;;;;;;;15.37;8.07;;;28.10;44.80;;;;;;5056227;28;20789;-78
2022/05/05 13:33:54;;;;;;;12.13;7.17;;;28.50;41.70;;;;;;5058203;28;20198;-77